Time;durP1;ratioP1;P1;durP2;ratioP2;P2;SDS_P1;SDS_P2;PMS_P1;PMS_P2;Temp;Humidity;BMP_temperature;BMP_pressure;BME280_temperature;BME280_humidity;BME280_pressure;Samples;Min_cycle;Max_cycle;Signal;HPM_P1;HPM_P2
2020/12/19 00:00:48;;;;;;;5.45;3.08;;;6.00;70.00;;;;;;5032470;28;20075;-74
2020/12/19 00:03:14;;;;;;;9.65;3.15;;;6.10;69.80;;;;;;5036271;28;20116;-75
2020/12/19 00:05:40;;;;;;;6.07;3.60;;;6.10;69.40;;;;;;5036658;28;20017;-76
2020/12/19 00:08:05;;;;;;;5.85;4.25;;;6.00;69.30;;;;;;5036354;28;20033;-76
2020/12/19 00:10:31;;;;;;;7.43;4.10;;;5.90;69.80;;;;;;5036666;28;20168;-77
2020/12/19 00:13:00;;;;;;;7.03;4.25;;;5.80;71.20;;;;;;5036964;28;20377;-76
2020/12/19 00:15:27;;;;;;;7.35;3.80;;;5.70;70.70;;;;;;5036805;28;20025;-76
2020/12/19 00:17:53;;;;;;;7.20;3.97;;;5.50;71.10;;;;;;5036516;28;20018;-76
2020/12/19 00:20:19;;;;;;;7.15;4.45;;;5.40;71.70;;;;;;5036369;28;20030;-76
2020/12/19 00:22:44;;;;;;;5.38;4.03;;;5.30;72.50;;;;;;5036341;28;20022;-76
2020/12/19 00:25:10;;;;;;;9.77;5.13;;;5.20;72.90;;;;;;5036323;28;20104;-76
2020/12/19 00:27:35;;;;;;;8.30;4.30;;;5.20;73.20;;;;;;5036270;28;20022;-76
2020/12/19 00:30:02;;;;;;;6.43;4.05;;;5.20;73.30;;;;;;5036113;28;20071;-76
2020/12/19 00:32:27;;;;;;;5.50;3.55;;;5.20;73.60;;;;;;5036083;28;20033;-76
2020/12/19 00:34:54;;;;;;;6.80;4.05;;;5.20;73.70;;;;;;5036199;28;20476;-76
2020/12/19 00:37:19;;;;;;;8.48;4.32;;;5.10;73.70;;;;;;5036023;28;20021;-76
2020/12/19 00:39:45;;;;;;;9.32;4.38;;;5.00;74.10;;;;;;5036021;28;20449;-75
2020/12/19 00:42:10;;;;;;;7.35;3.83;;;5.10;74.30;;;;;;5035955;28;20034;-76
2020/12/19 00:44:36;;;;;;;7.65;3.88;;;5.10;75.10;;;;;;5035949;28;20044;-76
2020/12/19 00:47:02;;;;;;;10.85;5.53;;;5.00;74.10;;;;;;5035868;28;20057;-75
2020/12/19 00:49:27;;;;;;;14.05;6.00;;;5.00;74.50;;;;;;5035869;28;20109;-75
2020/12/19 00:51:53;;;;;;;9.20;5.35;;;5.00;75.20;;;;;;5035858;28;20029;-75
2020/12/19 00:54:18;;;;;;;8.32;4.30;;;5.00;75.70;;;;;;5035631;28;20461;-75
2020/12/19 00:56:44;;;;;;;5.70;3.45;;;5.10;75.80;;;;;;5035454;28;20389;-75
2020/12/19 00:59:10;;;;;;;9.65;4.70;;;5.10;74.70;;;;;;5034826;28;20018;-75
2020/12/19 01:01:35;;;;;;;10.90;4.45;;;5.10;74.00;;;;;;5035270;28;20120;-75
2020/12/19 01:04:01;;;;;;;6.18;3.50;;;5.10;74.10;;;;;;5035497;28;20033;-75
2020/12/19 01:06:28;;;;;;;6.82;3.78;;;5.00;74.20;;;;;;5035401;28;20029;-75
2020/12/19 01:08:56;;;;;;;7.38;4.00;;;5.00;74.30;;;;;;5035303;28;20026;-76
2020/12/19 01:11:25;;;;;;;5.60;3.83;;;5.00;74.60;;;;;;5035069;28;20041;-75
2020/12/19 01:13:50;;;;;;;6.18;4.10;;;4.90;74.50;;;;;;5034132;28;20022;-75
2020/12/19 01:16:18;;;;;;;6.03;3.72;;;4.80;74.70;;;;;;5035261;28;20036;-76
2020/12/19 01:18:49;;;;;;;7.72;3.65;;;4.80;74.90;;;;;;5035230;28;20495;-75
2020/12/19 01:21:21;;;;;;;5.60;3.55;;;4.80;75.20;;;;;;5035093;28;20836;-76
2020/12/19 01:23:48;;;;;;;5.82;3.63;;;4.70;75.30;;;;;;5035227;28;20096;-76
2020/12/19 01:26:14;;;;;;;6.55;3.97;;;4.70;75.60;;;;;;5035098;28;20084;-76
2020/12/19 01:28:40;;;;;;;4.75;2.95;;;4.70;75.90;;;;;;5017489;28;20415;-76
2020/12/19 01:31:08;;;;;;;6.25;3.53;;;4.70;76.00;;;;;;5039886;28;20492;-76
2020/12/19 01:33:34;;;;;;;6.47;3.50;;;4.70;76.10;;;;;;5043671;28;20026;-76
2020/12/19 01:36:00;;;;;;;6.10;3.25;;;4.70;76.00;;;;;;5036776;28;20021;-75
2020/12/19 01:38:26;;;;;;;6.22;3.30;;;4.80;75.80;;;;;;5034896;28;20022;-76
2020/12/19 01:40:55;;;;;;;6.25;2.65;;;4.80;75.80;;;;;;5034949;28;20033;-75
2020/12/19 01:43:21;;;;;;;3.55;2.53;;;4.90;75.80;;;;;;5034910;28;20381;-76
2020/12/19 01:45:47;;;;;;;9.55;4.90;;;5.10;75.50;;;;;;5034719;28;20422;-75
2020/12/19 01:48:24;;;;;;;13.90;6.20;;;5.10;75.10;;;;;;5034760;28;20473;-76
2020/12/19 01:50:52;;;;;;;12.75;5.95;;;5.10;75.40;;;;;;5034670;28;20412;-76
2020/12/19 01:53:19;;;;;;;7.20;4.00;;;5.00;75.90;;;;;;5034750;28;20056;-76
2020/12/19 01:55:45;;;;;;;4.10;3.00;;;5.00;76.00;;;;;;5034649;28;20034;-76
2020/12/19 01:58:11;;;;;;;5.60;3.22;;;5.10;75.40;;;;;;5034610;28;20049;-76
2020/12/19 02:00:41;;;;;;;5.72;3.70;;;5.20;74.60;;;;;;5034495;28;20021;-76
2020/12/19 02:03:07;;;;;;;7.75;4.22;;;5.10;74.10;;;;;;5034339;28;20172;-76
2020/12/19 02:05:35;;;;;;;10.27;5.13;;;5.10;73.80;;;;;;5034609;28;20369;-75
2020/12/19 02:08:02;;;;;;;7.22;4.55;;;5.10;73.80;;;;;;5034271;28;20491;-75
2020/12/19 02:10:32;;;;;;;7.72;4.47;;;5.10;74.60;;;;;;5034182;28;20041;-74
2020/12/19 02:13:01;;;;;;;6.32;4.60;;;5.00;73.60;;;;;;5034211;28;20026;-74
2020/12/19 02:15:27;;;;;;;7.15;4.55;;;5.00;73.80;;;;;;5034156;28;20049;-75
2020/12/19 02:17:52;;;;;;;9.52;5.10;;;5.00;73.90;;;;;;5034013;28;20465;-74
2020/12/19 02:20:18;;;;;;;8.73;5.47;;;5.10;73.80;;;;;;5034133;28;20033;-75
2020/12/19 02:22:44;;;;;;;12.13;4.97;;;5.10;73.70;;;;;;5034272;28;20013;-74
2020/12/19 02:25:10;;;;;;;6.38;4.10;;;5.10;73.70;;;;;;5033824;28;20487;-75
2020/12/19 02:27:36;;;;;;;7.05;3.83;;;5.00;73.60;;;;;;5034002;28;20030;-75
2020/12/19 02:30:02;;;;;;;6.57;4.15;;;5.00;73.90;;;;;;5033750;28;20038;-79
2020/12/19 02:32:28;;;;;;;5.97;3.35;;;5.00;74.30;;;;;;5033782;28;20032;-75
2020/12/19 02:34:53;;;;;;;4.68;2.20;;;5.00;74.70;;;;;;5033898;28;20025;-77
2020/12/19 02:37:19;;;;;;;4.65;2.17;;;5.00;75.10;;;;;;5033604;28;20033;-77
2020/12/19 02:39:45;;;;;;;3.45;2.17;;;5.20;75.10;;;;;;5033730;28;20544;-74
2020/12/19 02:42:10;;;;;;;5.78;3.30;;;5.50;74.40;;;;;;5033724;28;20025;-74
2020/12/19 02:44:36;;;;;;;10.07;4.75;;;5.50;73.30;;;;;;5033734;28;20061;-74
2020/12/19 02:47:01;;;;;;;6.32;3.95;;;5.40;72.80;;;;;;5033623;28;20473;-75
2020/12/19 02:49:27;;;;;;;4.90;3.50;;;5.30;73.20;;;;;;5033533;28;20048;-75
2020/12/19 02:51:54;;;;;;;8.52;4.15;;;5.20;73.40;;;;;;5033508;28;20491;-75
2020/12/19 02:54:19;;;;;;;6.45;3.80;;;5.20;73.60;;;;;;5033490;28;20028;-75
2020/12/19 02:56:45;;;;;;;7.45;3.83;;;5.20;73.80;;;;;;5033144;28;20120;-76
2020/12/19 02:59:11;;;;;;;7.18;4.28;;;5.20;74.00;;;;;;5015632;28;20053;-75
2020/12/19 03:01:36;;;;;;;9.82;4.20;;;5.10;73.70;;;;;;5033231;28;20053;-76
2020/12/19 03:04:02;;;;;;;6.22;4.10;;;5.00;73.50;;;;;;5033623;28;20026;-75
2020/12/19 03:06:28;;;;;;;7.43;4.00;;;4.90;73.80;;;;;;5033286;28;20079;-75
2020/12/19 03:08:54;;;;;;;5.45;3.40;;;4.80;74.30;;;;;;5033197;28;20026;-75
2020/12/19 03:11:19;;;;;;;8.48;4.10;;;4.70;74.70;;;;;;5033071;28;20507;-76
2020/12/19 03:13:45;;;;;;;6.93;3.53;;;4.80;75.60;;;;;;5033277;28;20021;-75
2020/12/19 03:16:10;;;;;;;7.65;3.10;;;4.70;75.10;;;;;;5033095;28;20021;-75
2020/12/19 03:18:36;;;;;;;5.60;3.75;;;4.70;75.40;;;;;;5033149;28;20021;-79
2020/12/19 03:21:02;;;;;;;6.35;3.65;;;4.70;75.50;;;;;;5033112;28;20057;-79
2020/12/19 03:23:28;;;;;;;5.85;3.05;;;4.60;75.40;;;;;;5033064;28;20034;-79
2020/12/19 03:25:54;;;;;;;7.38;4.00;;;4.60;75.70;;;;;;5033043;28;20033;-77
2020/12/19 03:28:19;;;;;;;7.10;3.55;;;4.60;75.90;;;;;;5032943;28;20027;-79
2020/12/19 03:30:45;;;;;;;5.80;3.72;;;4.60;75.90;;;;;;5033123;28;20538;-79
2020/12/19 03:33:11;;;;;;;7.18;3.50;;;4.60;75.80;;;;;;5033021;28;20057;-78
2020/12/19 03:35:38;;;;;;;4.53;3.00;;;4.60;75.80;;;;;;5033667;28;20075;-79
2020/12/19 03:38:03;;;;;;;6.70;3.63;;;4.60;75.80;;;;;;5039184;28;20096;-80
2020/12/19 03:40:29;;;;;;;7.13;3.22;;;4.60;76.60;;;;;;5039520;28;20056;-79
2020/12/19 03:42:55;;;;;;;7.20;3.45;;;4.60;75.80;;;;;;5039575;28;20057;-78
2020/12/19 03:45:21;;;;;;;5.45;2.80;;;4.60;75.80;;;;;;5039406;28;20025;-78
2020/12/19 03:47:46;;;;;;;5.72;3.40;;;4.60;75.70;;;;;;5039483;28;20025;-78
2020/12/19 03:50:12;;;;;;;4.85;3.30;;;4.60;75.70;;;;;;5039323;28;20499;-77
2020/12/19 03:52:37;;;;;;;5.63;3.13;;;4.50;75.90;;;;;;5039442;28;20029;-78
2020/12/19 03:55:04;;;;;;;5.82;3.28;;;4.40;76.10;;;;;;5039429;28;20108;-78
2020/12/19 03:57:29;;;;;;;5.45;2.92;;;4.40;76.30;;;;;;5039323;28;20052;-77
2020/12/19 03:59:55;;;;;;;4.10;2.65;;;4.50;76.40;;;;;;5039205;28;20392;-79
2020/12/19 04:02:20;;;;;;;4.65;2.90;;;4.50;76.30;;;;;;5038906;28;20041;-79
2020/12/19 04:04:46;;;;;;;3.58;2.58;;;4.50;76.00;;;;;;5039413;28;20053;-79
2020/12/19 04:07:12;;;;;;;7.15;3.08;;;4.50;75.90;;;;;;5039190;28;20487;-78
2020/12/19 04:09:39;;;;;;;5.15;2.85;;;4.50;76.00;;;;;;5039155;28;20034;-79
2020/12/19 04:12:04;;;;;;;5.80;2.45;;;4.50;76.20;;;;;;5039147;28;20021;-78
2020/12/19 04:14:42;;;;;;;3.40;2.50;;;4.50;76.20;;;;;;5039116;28;20385;-79
2020/12/19 04:17:10;;;;;;;3.08;2.22;;;4.60;76.20;;;;;;5039170;28;20037;-79
2020/12/19 04:19:37;;;;;;;4.45;2.75;;;4.60;76.10;;;;;;5039224;28;20029;-79
2020/12/19 04:22:03;;;;;;;4.95;2.60;;;4.50;76.20;;;;;;5039101;28;20033;-79
2020/12/19 04:24:29;;;;;;;4.43;2.80;;;4.50;76.30;;;;;;5039237;28;20088;-79
2020/12/19 04:26:55;;;;;;;3.47;2.40;;;4.50;76.50;;;;;;5039275;28;20069;-78
2020/12/19 04:29:20;;;;;;;4.32;2.90;;;4.50;76.20;;;;;;5039117;28;20049;-78
2020/12/19 04:31:46;;;;;;;6.07;3.22;;;4.50;76.10;;;;;;5039189;28;20036;-78
2020/12/19 04:34:12;;;;;;;4.47;2.58;;;4.50;76.20;;;;;;5038969;28;20147;-78
2020/12/19 04:36:37;;;;;;;4.55;2.60;;;4.40;76.20;;;;;;5039043;28;20037;-77
2020/12/19 04:39:03;;;;;;;4.30;2.60;;;4.40;76.50;;;;;;5038900;28;20025;-76
2020/12/19 04:41:29;;;;;;;4.95;3.47;;;4.40;76.40;;;;;;5038744;28;20028;-76
2020/12/19 04:43:55;;;;;;;5.60;3.05;;;4.50;76.50;;;;;;5038939;28;20033;-76
2020/12/19 04:46:22;;;;;;;5.70;3.42;;;4.50;76.50;;;;;;5038755;28;20024;-76
2020/12/19 04:48:48;;;;;;;5.47;2.67;;;4.50;76.40;;;;;;5038956;28;20048;-77
2020/12/19 04:51:14;;;;;;;5.65;2.97;;;4.50;76.20;;;;;;5052385;28;20037;-76
2020/12/19 04:53:41;;;;;;;5.88;2.75;;;4.50;76.00;;;;;;5051290;28;20435;-77
2020/12/19 04:56:08;;;;;;;5.25;2.97;;;4.50;76.00;;;;;;5052763;28;20026;-76
2020/12/19 04:58:33;;;;;;;4.97;2.85;;;4.50;76.00;;;;;;5038497;28;20028;-76
2020/12/19 05:00:59;;;;;;;4.78;3.20;;;4.50;76.10;;;;;;5035393;28;20021;-76
2020/12/19 05:03:25;;;;;;;6.32;3.20;;;4.50;76.10;;;;;;5035353;28;20045;-76
2020/12/19 05:05:50;;;;;;;7.40;3.42;;;4.50;76.20;;;;;;5035572;28;20037;-76
2020/12/19 05:08:16;;;;;;;8.93;3.00;;;4.40;76.20;;;;;;5035481;28;20021;-76
2020/12/19 05:10:42;;;;;;;6.03;2.75;;;4.50;76.20;;;;;;5017539;28;20041;-76
2020/12/19 05:13:07;;;;;;;5.88;3.30;;;4.50;76.10;;;;;;5035341;28;20037;-76
2020/12/19 05:15:33;;;;;;;5.97;3.22;;;4.40;76.10;;;;;;5035340;28;20037;-77
2020/12/19 05:18:00;;;;;;;6.93;2.90;;;4.40;76.30;;;;;;5035156;28;20029;-78
2020/12/19 05:20:30;;;;;;;4.35;2.97;;;4.30;76.50;;;;;;5034912;28;20022;-76
2020/12/19 05:22:57;;;;;;;6.75;3.10;;;4.30;76.90;;;;;;5035104;28;20014;-76
2020/12/19 05:25:26;;;;;;;6.90;3.38;;;4.30;76.90;;;;;;5034859;28;20552;-76
2020/12/19 05:27:53;;;;;;;6.30;2.80;;;4.30;77.00;;;;;;5035609;28;20025;-77
2020/12/19 05:30:20;;;;;;;9.35;3.80;;;4.30;77.10;;;;;;5038573;28;20037;-76
2020/12/19 05:32:49;;;;;;;6.43;3.50;;;4.30;76.70;;;;;;5036068;28;20029;-76
2020/12/19 05:35:16;;;;;;;6.32;3.83;;;4.30;76.50;;;;;;5035253;28;20029;-77
2020/12/19 05:37:42;;;;;;;5.50;2.80;;;4.30;76.30;;;;;;5034786;28;20014;-76
2020/12/19 05:40:12;;;;;;;5.35;3.30;;;4.30;76.30;;;;;;5034832;28;20030;-76
2020/12/19 05:42:40;;;;;;;7.07;3.08;;;4.30;76.10;;;;;;5034964;28;20060;-78
2020/12/19 05:45:14;;;;;;;4.75;2.97;;;4.30;76.20;;;;;;5016997;28;20022;-78
2020/12/19 05:47:40;;;;;;;7.15;3.38;;;4.30;76.30;;;;;;5034760;28;20448;-79
2020/12/19 05:50:06;;;;;;;7.68;4.22;;;4.30;76.30;;;;;;5034591;28;20105;-80
2020/12/19 05:52:32;;;;;;;5.75;3.17;;;4.30;76.30;;;;;;5034764;28;20040;-80
2020/12/19 05:55:01;;;;;;;7.78;3.67;;;4.20;76.20;;;;;;5034562;28;20048;-78
2020/12/19 05:57:30;;;;;;;4.50;2.70;;;4.20;76.30;;;;;;5034699;28;20116;-75
2020/12/19 05:59:57;;;;;;;5.22;3.03;;;4.20;76.40;;;;;;5034060;28;20473;-75
2020/12/19 06:02:23;;;;;;;8.50;3.40;;;4.20;76.40;;;;;;5034406;28;20064;-77
2020/12/19 06:04:52;;;;;;;4.60;2.78;;;4.10;76.50;;;;;;5034482;28;20018;-76
2020/12/19 06:07:18;;;;;;;5.22;2.42;;;4.10;76.70;;;;;;5034385;28;20025;-77
2020/12/19 06:09:43;;;;;;;5.93;2.90;;;4.10;76.90;;;;;;5034204;28;20104;-78
2020/12/19 06:12:45;;;;;;;4.85;2.70;;;4.10;77.10;;;;;;5034085;28;20049;-76
2020/12/19 06:15:22;;;;;;;4.00;2.72;;;4.00;77.10;;;;;;5034265;28;20053;-77
2020/12/19 06:17:52;;;;;;;4.25;2.70;;;3.90;77.50;;;;;;5034212;28;20038;-74
2020/12/19 06:20:18;;;;;;;4.18;2.55;;;3.90;77.50;;;;;;5034077;28;20032;-77
2020/12/19 06:22:43;;;;;;;5.72;3.03;;;3.80;77.70;;;;;;5034113;28;20026;-76
2020/12/19 06:25:09;;;;;;;5.28;2.70;;;3.80;78.10;;;;;;5033914;28;20469;-76
2020/12/19 06:27:35;;;;;;;4.57;2.67;;;3.80;78.10;;;;;;5033941;28;20037;-76
2020/12/19 06:30:02;;;;;;;6.65;3.75;;;3.80;78.20;;;;;;5033591;28;20053;-78
2020/12/19 06:32:30;;;;;;;4.85;2.95;;;3.80;78.00;;;;;;5034058;28;20034;-77
2020/12/19 06:35:09;;;;;;;5.65;3.08;;;3.70;78.20;;;;;;5033799;28;20022;-77
2020/12/19 06:37:41;;;;;;;7.60;3.28;;;3.70;78.30;;;;;;5033258;28;20032;-78
2020/12/19 06:40:08;;;;;;;6.13;3.08;;;3.70;78.40;;;;;;5033417;28;20021;-80
2020/12/19 06:42:34;;;;;;;5.38;2.35;;;3.70;78.40;;;;;;5033486;28;20124;-78
2020/12/19 06:45:25;;;;;;;4.15;2.78;;;3.70;78.00;;;;;;5033291;28;20100;-77
2020/12/19 06:47:51;;;;;;;5.05;2.95;;;3.70;77.90;;;;;;5033391;28;20057;-76
2020/12/19 06:50:18;;;;;;;6.38;3.25;;;3.70;78.00;;;;;;5033346;28;20061;-74
2020/12/19 06:52:59;;;;;;;5.22;2.88;;;3.70;77.90;;;;;;5033316;28;20104;-75
2020/12/19 06:55:27;;;;;;;4.90;2.83;;;3.70;77.70;;;;;;5033255;28;20025;-78
2020/12/19 06:57:58;;;;;;;4.82;2.67;;;3.80;77.40;;;;;;5033158;28;20362;-77
2020/12/19 07:00:30;;;;;;;6.10;2.90;;;3.90;77.00;;;;;;5033268;28;20026;-78
2020/12/19 07:02:57;;;;;;;4.03;2.53;;;4.00;76.60;;;;;;5032967;28;20412;-78
2020/12/19 07:05:27;;;;;;;4.55;3.03;;;4.00;76.10;;;;;;5033238;28;20097;-79
2020/12/19 07:08:14;;;;;;;5.03;3.10;;;3.90;76.20;;;;;;5033074;28;20052;-79
2020/12/19 07:10:39;;;;;;;5.93;3.45;;;3.90;76.50;;;;;;5014643;28;20505;-77
2020/12/19 07:13:05;;;;;;;6.40;3.78;;;3.70;76.80;;;;;;5032734;28;20022;-76
2020/12/19 07:15:49;;;;;;;7.80;4.00;;;3.70;77.10;;;;;;5033021;28;20492;-76
2020/12/19 07:18:34;;;;;;;5.40;3.05;;;3.80;77.20;;;;;;5032999;28;20063;-75
2020/12/19 07:21:01;;;;;;;5.47;3.25;;;3.80;77.10;;;;;;5032848;28;20068;-78
2020/12/19 07:23:31;;;;;;;4.38;2.65;;;3.90;77.00;;;;;;5032637;28;20037;-76
2020/12/19 07:25:57;;;;;;;4.57;2.67;;;4.00;76.60;;;;;;5032826;28;20018;-75
2020/12/19 07:28:23;;;;;;;4.13;2.50;;;4.00;76.20;;;;;;5032899;28;20029;-79
2020/12/19 07:30:49;;;;;;;4.30;2.03;;;4.10;76.00;;;;;;5032873;28;20036;-78
2020/12/19 07:33:15;;;;;;;3.00;2.15;;;4.20;75.10;;;;;;5032608;28;20369;-75
2020/12/19 07:35:41;;;;;;;2.72;1.77;;;4.40;74.30;;;;;;5032777;28;20104;-75
2020/12/19 07:38:07;;;;;;;3.33;2.10;;;4.60;73.50;;;;;;5032642;28;20115;-74
2020/12/19 07:40:32;;;;;;;2.33;1.83;;;4.70;72.80;;;;;;5032832;28;20571;-75
2020/12/19 07:43:02;;;;;;;3.75;2.00;;;4.70;72.10;;;;;;5032691;28;20547;-76
2020/12/19 07:45:28;;;;;;;3.25;1.90;;;4.80;71.60;;;;;;5032723;28;20029;-76
2020/12/19 07:47:54;;;;;;;2.75;1.90;;;4.90;71.00;;;;;;5033309;28;20499;-77
2020/12/19 07:50:27;;;;;;;3.97;2.03;;;4.90;70.50;;;;;;5033219;28;20067;-74
2020/12/19 07:53:04;;;;;;;3.40;2.22;;;5.00;70.10;;;;;;5032819;28;20299;-76
2020/12/19 07:55:31;;;;;;;5.38;2.33;;;5.00;69.80;;;;;;5033090;28;20025;-76
2020/12/19 07:57:57;;;;;;;6.00;2.30;;;5.00;69.70;;;;;;5032540;28;20404;-76
2020/12/19 08:00:26;;;;;;;5.72;3.30;;;5.00;69.70;;;;;;5032666;28;20101;-78
2020/12/19 08:02:52;;;;;;;9.20;4.00;;;5.00;70.00;;;;;;5032485;28;20068;-77
2020/12/19 08:05:19;;;;;;;8.65;4.05;;;4.80;70.40;;;;;;5014849;28;20477;-76
2020/12/19 08:07:45;;;;;;;7.20;3.50;;;4.80;71.00;;;;;;5032488;28;20040;-75
2020/12/19 08:10:13;;;;;;;8.07;3.97;;;4.70;71.40;;;;;;5032881;28;20038;-77
2020/12/19 08:12:40;;;;;;;7.07;3.80;;;4.60;71.70;;;;;;5032637;28;20018;-78
2020/12/19 08:15:15;;;;;;;5.28;3.15;;;4.50;72.10;;;;;;5032456;28;20029;-77
2020/12/19 08:18:00;;;;;;;8.02;4.32;;;4.60;72.00;;;;;;5032494;28;20032;-77
2020/12/19 08:20:31;;;;;;;5.60;3.28;;;4.70;71.70;;;;;;5032455;28;20049;-76
2020/12/19 08:22:59;;;;;;;4.63;3.08;;;4.70;71.50;;;;;;5033928;28;20052;-77
2020/12/19 08:25:25;;;;;;;6.90;3.70;;;4.80;71.00;;;;;;5036108;28;20051;-80
2020/12/19 08:27:51;;;;;;;17.13;4.93;;;4.90;70.90;;;;;;5035879;28;20462;-77
2020/12/19 08:30:20;;;;;;;4.90;3.30;;;5.20;76.50;;;;;;5035906;28;20052;-79
2020/12/19 08:32:50;;;;;;;3.90;2.58;;;5.60;75.00;;;;;;5035866;28;20021;-77
2020/12/19 08:35:21;;;;;;;8.10;3.00;;;5.90;72.40;;;;;;5035913;28;20033;-76
2020/12/19 08:37:48;;;;;;;4.85;2.80;;;6.30;70.10;;;;;;5035807;28;20028;-77
2020/12/19 08:40:16;;;;;;;3.00;2.17;;;6.60;69.00;;;;;;5035835;28;20032;-76
2020/12/19 08:42:43;;;;;;;6.13;2.22;;;7.00;67.90;;;;;;5036011;28;20030;-75
2020/12/19 08:45:21;;;;;;;3.40;2.20;;;7.30;64.20;;;;;;5035765;28;20071;-78
2020/12/19 08:47:50;;;;;;;5.07;3.17;;;7.50;62.00;;;;;;5035860;28;20021;-78
2020/12/19 08:50:16;;;;;;;4.57;2.30;;;7.70;60.30;;;;;;5035625;28;20064;-79
2020/12/19 08:52:42;;;;;;;3.80;2.40;;;7.90;59.40;;;;;;5035440;28;20057;-76
2020/12/19 08:55:07;;;;;;;6.30;2.83;;;8.10;58.60;;;;;;5035398;28;20051;-76
2020/12/19 08:57:33;;;;;;;4.15;2.70;;;8.20;57.90;;;;;;5035349;28;20029;-77
2020/12/19 09:00:15;;;;;;;4.82;2.88;;;8.30;57.70;;;;;;5035558;28;20392;-77
2020/12/19 09:02:41;;;;;;;5.63;2.83;;;8.60;56.80;;;;;;5034995;28;20684;-77
2020/12/19 09:05:07;;;;;;;4.75;2.78;;;8.80;56.40;;;;;;5034914;28;20155;-77
2020/12/19 09:07:33;;;;;;;5.80;3.28;;;9.00;55.40;;;;;;5035037;28;20053;-75
2020/12/19 09:09:59;;;;;;;6.35;2.90;;;8.90;54.50;;;;;;5035136;28;20491;-76
2020/12/19 09:12:24;;;;;;;5.57;3.38;;;9.00;53.60;;;;;;5035172;28;20448;-75
2020/12/19 09:14:50;;;;;;;4.38;2.25;;;8.90;53.30;;;;;;5035260;28;20061;-74
2020/12/19 09:17:31;;;;;;;5.05;2.80;;;9.00;52.60;;;;;;5035259;28;20029;-73
2020/12/19 09:20:04;;;;;;;3.30;2.38;;;9.30;51.70;;;;;;5035077;28;20045;-78
2020/12/19 09:22:30;;;;;;;4.05;2.08;;;9.50;51.00;;;;;;5035157;28;20027;-73
2020/12/19 09:24:56;;;;;;;4.28;2.42;;;9.70;50.10;;;;;;5034936;28;20022;-73
2020/12/19 09:27:22;;;;;;;4.15;2.35;;;9.90;49.80;;;;;;5017239;28;20033;-73
2020/12/19 09:29:47;;;;;;;3.70;1.98;;;10.10;49.40;;;;;;5034868;28;20029;-74
2020/12/19 09:32:13;;;;;;;8.50;4.07;;;10.40;48.90;;;;;;5034433;28;20495;-73
2020/12/19 09:34:39;;;;;;;9.32;4.63;;;10.60;49.00;;;;;;5033736;28;20022;-75
2020/12/19 09:37:04;;;;;;;6.63;3.40;;;10.60;49.10;;;;;;5034748;28;20469;-76
2020/12/19 09:39:30;;;;;;;5.28;2.85;;;10.50;49.10;;;;;;5034592;28;20014;-76
2020/12/19 09:41:56;;;;;;;4.22;2.85;;;10.60;48.90;;;;;;5016744;28;20069;-74
2020/12/19 09:44:21;;;;;;;4.65;2.40;;;10.80;48.70;;;;;;5034468;28;20045;-75
2020/12/19 09:46:47;;;;;;;2.83;2.20;;;11.00;48.40;;;;;;5034567;28;20412;-77
2020/12/19 09:49:12;;;;;;;5.10;1.92;;;11.30;47.90;;;;;;5034204;28;20497;-75
2020/12/19 09:51:38;;;;;;;6.47;3.53;;;11.60;47.20;;;;;;5016609;28;20128;-77
2020/12/19 09:54:03;;;;;;;7.38;4.28;;;12.00;46.30;;;;;;5034330;28;20025;-79
2020/12/19 09:56:35;;;;;;;12.88;7.25;;;12.30;45.60;;;;;;5034214;28;20057;-75
2020/12/19 09:59:01;;;;;;;11.35;6.00;;;12.60;44.70;;;;;;5034131;28;20052;-75
2020/12/19 10:01:26;;;;;;;11.18;5.35;;;12.90;43.90;;;;;;5033241;28;20076;-75
2020/12/19 10:03:52;;;;;;;8.15;3.78;;;13.20;43.10;;;;;;5033539;28;20030;-80
2020/12/19 10:06:17;;;;;;;12.02;3.88;;;13.40;42.30;;;;;;5033516;28;20127;-76
2020/12/19 10:08:43;;;;;;;6.65;3.75;;;13.60;41.70;;;;;;5033952;28;20028;-75
2020/12/19 10:11:08;;;;;;;6.68;3.55;;;13.90;41.40;;;;;;5033740;28;20038;-76
2020/12/19 10:13:34;;;;;;;8.57;3.67;;;14.10;40.50;;;;;;5034038;28;20018;-76
2020/12/19 10:15:59;;;;;;;6.47;3.60;;;14.00;39.80;;;;;;5033819;28;20021;-77
2020/12/19 10:18:25;;;;;;;3.53;2.63;;;14.10;39.70;;;;;;5033724;28;20032;-73
2020/12/19 10:20:50;;;;;;;5.65;2.80;;;14.30;39.20;;;;;;5033759;28;20057;-78
2020/12/19 10:23:16;;;;;;;7.05;3.30;;;14.40;38.90;;;;;;5033570;28;20389;-75
2020/12/19 10:25:42;;;;;;;5.63;3.15;;;14.40;38.70;;;;;;5032665;28;20024;-78
2020/12/19 10:28:07;;;;;;;4.43;3.10;;;14.60;38.40;;;;;;5034020;28;20385;-78
2020/12/19 10:30:33;;;;;;;4.53;2.60;;;14.60;38.10;;;;;;5033410;28;20036;-78
2020/12/19 10:32:58;;;;;;;4.88;3.03;;;14.90;37.70;;;;;;5033292;28;20052;-82
2020/12/19 10:35:24;;;;;;;2.78;2.00;;;15.20;37.00;;;;;;5033587;28;20125;-76
2020/12/19 10:37:49;;;;;;;1.50;1.40;;;15.60;36.40;;;;;;5033696;28;20029;-77
2020/12/19 10:40:15;;;;;;;1.58;1.10;;;15.80;35.30;;;;;;5033352;28;20661;-83
2020/12/19 10:42:41;;;;;;;0.98;0.80;;;16.20;34.20;;;;;;5032133;28;20036;-78
2020/12/19 10:45:06;;;;;;;2.22;1.25;;;16.60;33.10;;;;;;5031510;28;20029;-79
2020/12/19 10:47:32;;;;;;;2.97;1.30;;;16.90;32.20;;;;;;5033331;28;20108;-79
2020/12/19 10:49:57;;;;;;;1.85;1.25;;;17.40;31.60;;;;;;5033197;28;20039;-78
2020/12/19 10:52:23;;;;;;;1.67;1.20;;;17.70;30.60;;;;;;5033501;28;20124;-79
2020/12/19 10:54:48;;;;;;;4.05;1.20;;;18.00;29.70;;;;;;5033054;28;20029;-77
2020/12/19 10:57:14;;;;;;;2.78;1.15;;;18.30;29.00;;;;;;5033022;28;20033;-77
2020/12/19 10:59:40;;;;;;;1.45;0.93;;;18.50;27.90;;;;;;5033180;28;20470;-78
2020/12/19 11:02:05;;;;;;;1.10;0.90;;;18.80;27.20;;;;;;5044171;28;20152;-77
2020/12/19 11:04:31;;;;;;;0.90;0.80;;;18.90;26.40;;;;;;5053288;28;20021;-78
2020/12/19 11:06:57;;;;;;;2.35;1.50;;;19.70;26.10;;;;;;5053367;28;20354;-77
2020/12/19 11:09:23;;;;;;;2.08;1.40;;;20.30;25.40;;;;;;5053059;28;20036;-76
2020/12/19 11:11:53;;;;;;;3.78;1.83;;;21.00;24.80;;;;;;5048346;28;20041;-76
2020/12/19 11:14:19;;;;;;;4.30;1.38;;;21.90;24.20;;;;;;5033031;28;20470;-76
2020/12/19 11:16:45;;;;;;;3.28;1.58;;;22.60;23.10;;;;;;5033219;28;20108;-78
2020/12/19 11:19:10;;;;;;;3.22;1.50;;;23.30;22.30;;;;;;5032844;28;20049;-77
2020/12/19 11:21:44;;;;;;;1.13;0.88;;;24.20;21.10;;;;;;5033029;28;20100;-79
2020/12/19 11:24:11;;;;;;;2.58;1.00;;;25.10;19.90;;;;;;5032945;28;20029;-78
2020/12/19 11:26:37;;;;;;;1.55;0.80;;;26.10;18.80;;;;;;5032862;28;20028;-78
2020/12/19 11:29:02;;;;;;;1.63;1.30;;;27.10;17.70;;;;;;5033247;28;20026;-78
2020/12/19 11:31:28;;;;;;;3.10;1.17;;;27.80;16.30;;;;;;5032711;28;20041;-76
2020/12/19 11:33:55;;;;;;;1.30;1.02;;;28.50;15.60;;;;;;5032668;28;20466;-77
2020/12/19 11:36:22;;;;;;;6.25;2.40;;;29.30;15.00;;;;;;5032789;28;20021;-77
2020/12/19 11:38:47;;;;;;;1.50;0.90;;;30.20;14.10;;;;;;5014822;28;20377;-76
2020/12/19 11:41:13;;;;;;;4.32;1.20;;;30.90;12.90;;;;;;5032390;28;20025;-76
2020/12/19 11:43:38;;;;;;;2.83;0.80;;;31.60;12.90;;;;;;5032483;28;20071;-77
2020/12/19 11:46:07;;;;;;;1.13;0.80;;;32.20;11.70;;;;;;5034258;28;20029;-77
2020/12/19 11:48:33;;;;;;;2.65;0.75;;;32.90;10.80;;;;;;5019131;28;20018;-77
2020/12/19 11:50:58;;;;;;;0.73;0.68;;;33.50;10.30;;;;;;5038218;28;20044;-81
2020/12/19 11:53:24;;;;;;;0.77;0.68;;;33.90;9.40;;;;;;5035579;28;20477;-75
2020/12/19 11:55:50;;;;;;;1.65;0.60;;;33.30;8.90;;;;;;5032437;28;20025;-74
2020/12/19 11:58:15;;;;;;;2.13;1.00;;;33.50;8.50;;;;;;5037059;28;20040;-81
2020/12/19 12:00:41;;;;;;;0.60;0.60;;;34.00;8.70;;;;;;5037462;28;20460;-76
2020/12/19 12:03:07;;;;;;;0.73;0.70;;;34.60;8.20;;;;;;5036435;28;20041;-75
2020/12/19 12:05:34;;;;;;;1.02;0.57;;;35.00;7.90;;;;;;5036445;28;20042;-75
2020/12/19 12:07:59;;;;;;;1.20;0.75;;;35.60;7.40;;;;;;5036473;28;20025;-76
2020/12/19 12:10:25;;;;;;;0.80;0.63;;;36.30;7.10;;;;;;5041608;28;20026;-76
2020/12/19 12:12:50;;;;;;;0.63;0.57;;;36.50;6.60;;;;;;5039503;28;20048;-76
2020/12/19 12:15:16;;;;;;;1.42;0.95;;;36.70;6.10;;;;;;5037206;28;20506;-76
2020/12/19 12:17:41;;;;;;;0.88;0.75;;;35.80;5.70;;;;;;5018520;28;20060;-75
2020/12/19 12:20:07;;;;;;;1.63;0.75;;;34.90;5.80;;;;;;5036247;28;20036;-76
2020/12/19 12:22:32;;;;;;;3.35;1.38;;;35.20;6.50;;;;;;5036171;28;20080;-76
2020/12/19 12:24:58;;;;;;;0.77;0.70;;;35.70;6.50;;;;;;5036287;28;20433;-76
2020/12/19 12:27:23;;;;;;;2.40;0.77;;;36.50;6.50;;;;;;5036189;28;20083;-75
2020/12/19 12:29:49;;;;;;;0.88;0.75;;;36.00;6.40;;;;;;5036076;28;20032;-75
2020/12/19 12:32:15;;;;;;;1.23;0.90;;;34.90;6.20;;;;;;5035905;28;20014;-75
2020/12/19 12:34:41;;;;;;;1.15;0.80;;;34.10;6.60;;;;;;5036356;28;20029;-75
2020/12/19 12:37:06;;;;;;;0.60;0.60;;;33.20;7.10;;;;;;5035946;28;20504;-76
2020/12/19 12:39:32;;;;;;;1.05;0.60;;;33.80;7.40;;;;;;5036217;28;20384;-76
2020/12/19 12:41:57;;;;;;;0.60;0.60;;;35.10;7.70;;;;;;5036138;28;20481;-77
2020/12/19 12:44:23;;;;;;;2.85;0.70;;;36.40;7.30;;;;;;5018130;28;20044;-77
2020/12/19 12:46:49;;;;;;;2.20;0.70;;;37.30;6.80;;;;;;5035977;28;20033;-77
2020/12/19 12:49:14;;;;;;;2.53;0.70;;;38.20;6.50;;;;;;5035571;28;20480;-77
2020/12/19 12:51:40;;;;;;;0.73;0.70;;;38.90;5.70;;;;;;5035629;28;20030;-76
2020/12/19 12:54:05;;;;;;;7.70;7.00;;;39.20;5.50;;;;;;5035688;28;20021;-77